Terminal Aerodrome Forecast
Issued by NWS

Home | Current Version | Previous Version | Text Only | Print | Product List | Glossary On
Versions: 1 2 3 4 5 6 7 8 9 10 11 12 13 14 15 16 17 18 19 20 21 22 23 24 25 26
000
FTUS46 KPDT 181700 RRA
TAFALW
TAF
KALW 181741Z 1818/1918 18007KT P6SM SCT050 SCT080 OVC180
     FM190500 17005KT P6SM SCT070 BKN080
     FM190900 18008KT P6SM -RA BKN035 OVC050
     FM191100 15005KT 6SM RA BR BKN020 OVC027=

USA.gov is the U.S. government's official web portal to all federal, state and local government web resources and services.